createdAt,value
2018-04-27T00:00:15.416Z,0.00
2018-04-27T00:01:15.397Z,0.00
2018-04-27T00:02:15.377Z,0.00
2018-04-27T00:03:15.356Z,0.00
2018-04-27T00:04:15.393Z,0.00
2018-04-27T00:05:15.321Z,0.00
2018-04-27T00:06:15.300Z,0.00
2018-04-27T00:07:15.280Z,0.00
2018-04-27T00:08:15.262Z,0.00
2018-04-27T00:09:15.246Z,0.00
2018-04-27T00:10:15.223Z,0.00
2018-04-27T00:11:15.205Z,0.00
2018-04-27T00:12:15.184Z,0.00
2018-04-27T00:13:15.170Z,0.00
2018-04-27T00:14:15.147Z,0.00
2018-04-27T00:15:15.128Z,0.00
2018-04-27T00:16:15.113Z,0.00
2018-04-27T00:17:15.097Z,0.00
2018-04-27T00:18:15.072Z,0.00
2018-04-27T00:19:15.052Z,0.00
2018-04-27T00:20:15.030Z,0.00
2018-04-27T00:21:15.015Z,0.00
2018-04-27T00:22:14.992Z,0.00
2018-04-27T00:23:14.974Z,0.00
2018-04-27T00:24:14.954Z,0.00
2018-04-27T00:25:14.937Z,0.00
2018-04-27T00:26:14.913Z,0.00
2018-04-27T00:27:14.898Z,0.00
2018-04-27T00:28:14.878Z,0.00
2018-04-27T00:29:14.935Z,0.00
2018-04-27T00:30:14.839Z,0.00
2018-04-27T00:31:14.817Z,0.00
2018-04-27T00:32:14.801Z,0.00
2018-04-27T00:33:14.781Z,0.00
2018-04-27T00:34:14.837Z,0.00
2018-04-27T00:35:14.741Z,0.00
2018-04-27T00:36:14.727Z,0.00
2018-04-27T00:37:14.706Z,0.00
2018-04-27T00:38:14.689Z,0.00
2018-04-27T00:39:14.664Z,0.00
2018-04-27T00:40:14.647Z,0.00
2018-04-27T00:41:14.631Z,0.00
2018-04-27T00:42:14.609Z,0.00
2018-04-27T00:43:14.586Z,0.00
2018-04-27T00:44:14.569Z,0.00
2018-04-27T00:45:14.554Z,0.00
2018-04-27T00:46:14.530Z,0.00
2018-04-27T00:47:14.510Z,0.00
2018-04-27T00:48:14.491Z,0.00
2018-04-27T00:49:14.473Z,0.00
2018-04-27T00:50:14.459Z,0.00
2018-04-27T00:51:14.433Z,0.00
2018-04-27T00:52:14.416Z,0.00
2018-04-27T00:53:14.403Z,0.00
2018-04-27T00:54:14.376Z,0.00
2018-04-27T00:55:14.356Z,0.00
2018-04-27T00:56:14.338Z,0.00
2018-04-27T00:57:14.319Z,0.00
2018-04-27T00:58:14.299Z,0.00
2018-04-27T00:59:14.287Z,0.00
2018-04-27T01:00:14.261Z,0.00
2018-04-27T01:01:14.243Z,0.00
2018-04-27T01:02:14.228Z,0.00
2018-04-27T01:03:14.205Z,0.00
2018-04-27T01:04:14.185Z,0.00
2018-04-27T01:05:14.166Z,0.00
2018-04-27T01:06:14.149Z,0.00
2018-04-27T01:07:14.128Z,0.00
2018-04-27T01:08:14.109Z,0.00
2018-04-27T01:09:14.090Z,0.00
2018-04-27T01:10:14.072Z,0.00
2018-04-27T01:11:14.052Z,0.00
2018-04-27T01:12:14.082Z,0.00
2018-04-27T01:13:14.014Z,0.00
2018-04-27T01:14:13.994Z,0.00
2018-04-27T01:15:13.975Z,0.00
2018-04-27T01:16:13.956Z,0.00
2018-04-27T01:17:13.937Z,0.00
2018-04-27T01:18:13.919Z,0.00
2018-04-27T01:19:13.899Z,0.00
2018-04-27T01:20:13.883Z,0.00
2018-04-27T01:21:13.863Z,0.00
2018-04-27T01:22:13.843Z,0.00
2018-04-27T01:23:13.824Z,0.00
2018-04-27T01:24:13.809Z,0.00
2018-04-27T01:25:13.795Z,0.00
2018-04-27T01:26:13.769Z,0.00
2018-04-27T01:27:13.746Z,0.00
2018-04-27T01:28:13.728Z,0.00
2018-04-27T01:29:13.708Z,0.00
2018-04-27T01:30:13.691Z,0.00
2018-04-27T01:31:13.669Z,0.00
2018-04-27T01:32:13.653Z,0.00
2018-04-27T01:33:13.631Z,0.00
2018-04-27T01:34:13.614Z,0.00
2018-04-27T01:35:13.592Z,0.00
2018-04-27T01:36:13.572Z,0.00
2018-04-27T01:37:13.554Z,0.00
2018-04-27T01:38:13.532Z,0.00
2018-04-27T01:39:13.517Z,0.00
2018-04-27T01:40:13.495Z,0.00
2018-04-27T01:41:13.476Z,0.00
2018-04-27T01:42:13.457Z,0.00
2018-04-27T01:43:13.447Z,0.00
2018-04-27T01:44:13.419Z,0.00
2018-04-27T01:45:13.400Z,0.00
2018-04-27T01:46:13.380Z,0.00
2018-04-27T01:47:13.363Z,0.00
2018-04-27T01:48:13.342Z,0.00
2018-04-27T01:49:13.325Z,0.00
2018-04-27T01:50:13.309Z,0.00
2018-04-27T01:51:13.284Z,0.00
2018-04-27T01:52:13.267Z,0.00
2018-04-27T01:53:13.247Z,0.00
2018-04-27T01:54:13.229Z,0.00
2018-04-27T01:55:13.217Z,0.00
2018-04-27T01:56:13.189Z,0.00
2018-04-27T01:57:13.172Z,0.00
2018-04-27T01:58:13.152Z,0.00
2018-04-27T01:59:13.131Z,0.00
2018-04-27T02:00:13.112Z,0.00
2018-04-27T02:01:13.095Z,0.00
2018-04-27T02:02:13.075Z,0.00
2018-04-27T02:03:13.056Z,0.00
2018-04-27T02:04:13.037Z,0.00
2018-04-27T02:05:13.016Z,0.00
2018-04-27T02:06:12.996Z,0.00
2018-04-27T02:07:12.975Z,0.00
2018-04-27T02:08:12.959Z,0.00
2018-04-27T02:09:12.941Z,0.00
2018-04-27T02:10:12.921Z,0.00
2018-04-27T02:11:12.904Z,0.00
2018-04-27T02:12:12.881Z,0.00
2018-04-27T02:13:12.862Z,0.00
2018-04-27T02:14:12.841Z,0.00
2018-04-27T02:15:12.821Z,0.00
2018-04-27T02:16:12.803Z,0.00
2018-04-27T02:17:12.786Z,0.00
2018-04-27T02:18:12.764Z,0.00
2018-04-27T02:19:12.747Z,0.00
2018-04-27T02:20:12.726Z,0.00
2018-04-27T02:21:12.713Z,0.00
2018-04-27T02:22:12.689Z,0.00
2018-04-27T02:23:12.670Z,0.00
2018-04-27T02:24:12.651Z,0.00
2018-04-27T02:25:12.630Z,0.00
2018-04-27T02:26:12.608Z,0.00
2018-04-27T02:27:12.590Z,0.00
2018-04-27T02:28:12.572Z,0.00
2018-04-27T02:29:12.554Z,0.00
2018-04-27T02:30:12.534Z,0.00
2018-04-27T02:31:12.513Z,0.00
2018-04-27T02:32:12.493Z,0.00
2018-04-27T02:33:12.483Z,0.00
2018-04-27T02:34:12.463Z,0.00
2018-04-27T02:35:12.435Z,0.00
2018-04-27T02:36:12.416Z,0.00
2018-04-27T02:37:12.400Z,0.00
2018-04-27T02:38:12.374Z,0.00
2018-04-27T02:39:12.355Z,0.00
2018-04-27T02:40:12.337Z,0.00
2018-04-27T02:41:12.316Z,0.00
2018-04-27T02:42:12.297Z,0.00
2018-04-27T02:43:12.277Z,0.00
2018-04-27T02:44:12.257Z,0.00
2018-04-27T02:45:12.237Z,0.00
2018-04-27T02:46:12.217Z,0.00
2018-04-27T02:47:12.199Z,0.00
2018-04-27T02:48:12.186Z,0.00
2018-04-27T02:49:12.159Z,0.00
2018-04-27T02:50:12.139Z,0.00
2018-04-27T02:51:12.118Z,0.00
2018-04-27T02:52:12.105Z,0.00
2018-04-27T02:53:12.080Z,0.00
2018-04-27T02:54:12.063Z,0.00
2018-04-27T02:55:12.047Z,0.00
2018-04-27T02:56:12.021Z,0.00
2018-04-27T02:57:12.002Z,0.00
2018-04-27T02:58:11.987Z,0.00
2018-04-27T02:59:11.972Z,0.00
2018-04-27T03:00:11.945Z,0.00
2018-04-27T03:01:11.927Z,0.00
2018-04-27T03:02:11.904Z,0.00
2018-04-27T03:03:11.886Z,0.00
2018-04-27T03:04:11.866Z,0.00
2018-04-27T03:05:11.844Z,0.00
2018-04-27T03:06:11.829Z,0.00
2018-04-27T03:07:11.817Z,0.00
2018-04-27T03:08:11.786Z,0.00
2018-04-27T03:09:11.770Z,0.00
2018-04-27T03:10:11.800Z,0.00
2018-04-27T03:11:11.725Z,0.00
2018-04-27T03:12:11.705Z,0.00
2018-04-27T03:13:11.686Z,0.00
2018-04-27T03:14:11.667Z,0.00
2018-04-27T03:15:11.646Z,0.00
2018-04-27T03:16:11.627Z,0.00
2018-04-27T03:17:11.606Z,0.00
2018-04-27T03:18:11.591Z,0.00
2018-04-27T03:19:11.567Z,0.00
2018-04-27T03:20:11.548Z,0.00
2018-04-27T03:21:11.527Z,0.00
2018-04-27T03:22:11.511Z,0.00
2018-04-27T03:23:11.487Z,0.00
2018-04-27T03:24:11.469Z,0.00
2018-04-27T03:25:11.448Z,0.00
2018-04-27T03:26:11.432Z,0.00
2018-04-27T03:27:11.407Z,0.00
2018-04-27T03:28:11.387Z,0.00
2018-04-27T03:29:11.368Z,0.00
2018-04-27T03:30:11.353Z,0.00
2018-04-27T03:31:11.330Z,0.00
2018-04-27T03:32:11.312Z,0.00
2018-04-27T03:33:11.288Z,0.00
2018-04-27T03:34:11.322Z,0.00
2018-04-27T03:35:11.253Z,0.00
2018-04-27T03:36:11.228Z,5.63
2018-04-27T03:37:11.212Z,5.63
2018-04-27T03:38:11.187Z,5.63
2018-04-27T03:39:11.167Z,5.63
2018-04-27T03:40:11.154Z,5.63
2018-04-27T03:41:11.129Z,5.63
2018-04-27T03:42:11.107Z,5.63
2018-04-27T03:43:11.087Z,5.63
2018-04-27T03:44:11.068Z,11.25
2018-04-27T03:45:11.048Z,11.25
2018-04-27T03:46:11.028Z,11.25
2018-04-27T03:47:11.007Z,11.25
2018-04-27T03:48:10.985Z,11.25
2018-04-27T03:49:10.965Z,16.88
2018-04-27T03:50:10.946Z,16.88
2018-04-27T03:51:10.924Z,16.88
2018-04-27T03:52:10.905Z,16.88
2018-04-27T03:53:10.889Z,22.50
2018-04-27T03:54:10.863Z,22.50
2018-04-27T03:55:10.844Z,22.50
2018-04-27T03:56:10.828Z,22.50
2018-04-27T03:57:10.805Z,28.13
2018-04-27T03:58:10.784Z,28.13
2018-04-27T03:59:10.772Z,28.13
2018-04-27T04:00:10.745Z,28.13
2018-04-27T04:01:10.735Z,28.13
2018-04-27T04:02:10.703Z,33.75
2018-04-27T04:03:10.686Z,33.75
2018-04-27T04:04:10.663Z,33.75
2018-04-27T04:05:10.643Z,39.38
2018-04-27T04:06:10.623Z,39.38
2018-04-27T04:07:10.600Z,39.38
2018-04-27T04:08:10.583Z,45.00
2018-04-27T04:09:10.566Z,45.00
2018-04-27T04:10:10.542Z,45.00
2018-04-27T04:11:10.525Z,45.00
2018-04-27T04:12:10.501Z,45.00
2018-04-27T04:13:10.491Z,50.63
2018-04-27T04:14:10.465Z,50.63
2018-04-27T04:15:10.440Z,50.63
2018-04-27T04:16:10.420Z,56.25
2018-04-27T04:17:10.402Z,56.25
2018-04-27T04:18:10.378Z,56.25
2018-04-27T04:19:10.359Z,61.88
2018-04-27T04:20:10.340Z,61.88
2018-04-27T04:21:10.317Z,61.88
2018-04-27T04:22:10.299Z,61.88
2018-04-27T04:23:10.281Z,67.50
2018-04-27T04:24:10.257Z,67.50
2018-04-27T04:25:10.245Z,67.50
2018-04-27T04:26:10.217Z,73.13
2018-04-27T04:27:10.195Z,73.13
2018-04-27T04:28:10.178Z,78.75
2018-04-27T04:29:10.156Z,78.75
2018-04-27T04:30:10.136Z,84.38
2018-04-27T04:31:10.115Z,84.38
2018-04-27T04:32:10.094Z,90.00
2018-04-27T04:33:10.073Z,90.00
2018-04-27T04:34:10.055Z,90.00
2018-04-27T04:35:10.035Z,95.63
2018-04-27T04:36:10.015Z,101.25
2018-04-27T04:37:09.996Z,106.88
2018-04-27T04:38:09.990Z,118.13
2018-04-27T04:39:09.960Z,129.38
2018-04-27T04:40:09.934Z,135.00
2018-04-27T04:41:09.914Z,140.63
2018-04-27T04:42:09.894Z,140.63
2018-04-27T04:43:09.877Z,146.25
2018-04-27T04:44:09.849Z,146.25
2018-04-27T04:45:09.921Z,146.25
2018-04-27T04:46:09.812Z,157.50
2018-04-27T04:47:09.791Z,168.75
2018-04-27T04:48:09.771Z,180.00
2018-04-27T04:49:09.756Z,185.63
2018-04-27T04:50:09.732Z,185.63
2018-04-27T04:51:09.710Z,191.25
2018-04-27T04:52:09.691Z,191.25
2018-04-27T04:53:09.669Z,191.25
2018-04-27T04:54:09.657Z,191.25
2018-04-27T04:55:09.628Z,202.50
2018-04-27T04:56:09.611Z,208.13
2018-04-27T04:57:09.590Z,213.75
2018-04-27T04:58:09.572Z,208.13
2018-04-27T04:59:09.550Z,208.13
2018-04-27T05:00:09.533Z,208.13
2018-04-27T05:01:09.512Z,202.50
2018-04-27T05:02:09.495Z,202.50
2018-04-27T05:03:09.472Z,202.50
2018-04-27T05:04:09.451Z,213.75
2018-04-27T05:05:09.444Z,213.75
2018-04-27T05:06:09.411Z,219.38
2018-04-27T05:07:09.391Z,230.63
2018-04-27T05:08:09.373Z,236.25
2018-04-27T05:09:09.352Z,236.25
2018-04-27T05:10:09.333Z,241.88
2018-04-27T05:11:09.312Z,241.88
2018-04-27T05:12:09.293Z,236.25
2018-04-27T05:13:09.273Z,241.88
2018-04-27T05:14:09.255Z,241.88
2018-04-27T05:15:09.235Z,219.38
2018-04-27T05:16:09.220Z,225.00
2018-04-27T05:17:09.195Z,241.88
2018-04-27T05:18:09.178Z,241.88
2018-04-27T05:19:09.157Z,258.75
2018-04-27T05:20:09.137Z,281.25
2018-04-27T05:21:09.123Z,298.13
2018-04-27T05:22:09.103Z,315.00
2018-04-27T05:23:09.080Z,315.00
2018-04-27T05:24:09.082Z,303.75
2018-04-27T05:25:09.043Z,281.25
2018-04-27T05:26:09.027Z,286.88
2018-04-27T05:27:09.003Z,303.75
2018-04-27T05:28:08.994Z,309.38
2018-04-27T05:29:08.967Z,320.63
2018-04-27T05:30:08.952Z,326.25
2018-04-27T05:31:08.927Z,326.25
2018-04-27T05:32:08.915Z,303.75
2018-04-27T05:33:08.887Z,292.50
2018-04-27T05:34:08.871Z,292.50
2018-04-27T05:35:08.856Z,298.13
2018-04-27T05:36:08.832Z,309.38
2018-04-27T05:37:08.814Z,303.75
2018-04-27T05:38:08.795Z,303.75
2018-04-27T05:39:08.773Z,303.75
2018-04-27T05:40:08.759Z,303.75
2018-04-27T05:41:08.740Z,298.13
2018-04-27T05:42:08.717Z,298.13
2018-04-27T05:43:08.700Z,303.75
2018-04-27T05:44:08.689Z,298.13
2018-04-27T05:45:08.664Z,303.75
2018-04-27T05:46:08.644Z,315.00
2018-04-27T05:47:08.625Z,320.63
2018-04-27T05:48:08.609Z,326.25
2018-04-27T05:49:08.590Z,320.63
2018-04-27T05:50:08.603Z,320.63
2018-04-27T05:51:08.553Z,320.63
2018-04-27T05:52:08.539Z,320.63
2018-04-27T05:53:08.513Z,326.25
2018-04-27T05:54:08.494Z,326.25
2018-04-27T05:55:08.488Z,320.63
2018-04-27T05:56:08.455Z,309.38
2018-04-27T05:57:08.438Z,303.75
2018-04-27T05:58:08.425Z,298.13
2018-04-27T05:59:08.404Z,303.75
2018-04-27T06:00:08.382Z,309.38
2018-04-27T06:01:08.372Z,315.00
2018-04-27T06:02:08.346Z,320.63
2018-04-27T06:03:08.328Z,320.63
2018-04-27T06:04:08.309Z,326.25
2018-04-27T06:05:08.291Z,326.25
2018-04-27T06:06:08.280Z,326.25
2018-04-27T06:07:08.254Z,320.63
2018-04-27T06:08:08.234Z,303.75
2018-04-27T06:09:08.222Z,303.75
2018-04-27T06:10:08.241Z,298.13
2018-04-27T06:11:08.180Z,303.75
2018-04-27T06:12:08.162Z,315.00
2018-04-27T06:13:08.149Z,331.88
2018-04-27T06:14:08.126Z,354.38
2018-04-27T06:15:08.109Z,365.63
2018-04-27T06:16:08.169Z,376.88
2018-04-27T06:17:08.072Z,405.00
2018-04-27T06:18:08.054Z,416.25
2018-04-27T06:19:08.036Z,433.13
2018-04-27T06:20:08.017Z,433.13
2018-04-27T06:21:08.004Z,416.25
2018-04-27T06:22:07.982Z,421.88
2018-04-27T06:23:07.972Z,421.88
2018-04-27T06:24:07.946Z,410.63
2018-04-27T06:25:07.929Z,405.00
2018-04-27T06:26:07.911Z,410.63
2018-04-27T06:27:07.894Z,405.00
2018-04-27T06:28:07.873Z,421.88
2018-04-27T06:29:07.858Z,416.25
2018-04-27T06:30:07.839Z,421.88
2018-04-27T06:31:07.825Z,433.13
2018-04-27T06:32:07.806Z,438.75
2018-04-27T06:33:07.787Z,461.25
2018-04-27T06:34:07.769Z,472.50
2018-04-27T06:35:07.750Z,472.50
2018-04-27T06:36:07.743Z,466.88
2018-04-27T06:37:07.722Z,461.25
2018-04-27T06:38:07.699Z,455.63
2018-04-27T06:39:07.687Z,455.63
2018-04-27T06:40:07.663Z,450.00
2018-04-27T06:41:07.648Z,466.88
2018-04-27T06:42:07.630Z,472.50
2018-04-27T06:43:07.609Z,466.88
2018-04-27T06:44:07.595Z,450.00
2018-04-27T06:45:07.575Z,455.63
2018-04-27T06:46:07.560Z,450.00
2018-04-27T06:47:07.542Z,444.38
2018-04-27T06:48:07.524Z,438.75
2018-04-27T06:49:07.507Z,444.38
2018-04-27T06:50:07.491Z,450.00
2018-04-27T06:51:07.474Z,450.00
2018-04-27T06:52:07.455Z,455.63
2018-04-27T06:53:07.439Z,483.75
2018-04-27T06:54:07.422Z,528.75
2018-04-27T06:55:07.411Z,585.00
2018-04-27T06:56:07.386Z,787.50
2018-04-27T06:57:07.376Z,916.88
2018-04-27T06:58:07.353Z,1350.00
2018-04-27T06:59:07.393Z,1670.63
2018-04-27T07:00:07.320Z,1558.13
2018-04-27T07:01:07.303Z,1541.25
2018-04-27T07:02:07.287Z,1091.25
2018-04-27T07:03:07.269Z,1141.88
2018-04-27T07:04:07.254Z,1186.88
2018-04-27T07:05:07.411Z,894.38
2018-04-27T07:06:07.219Z,894.38
2018-04-27T07:07:07.205Z,995.63
2018-04-27T07:08:07.193Z,1636.88
2018-04-27T07:09:07.172Z,2300.63
2018-04-27T07:10:07.157Z,2604.38
2018-04-27T07:11:07.141Z,2458.13
2018-04-27T07:12:07.127Z,2216.25
2018-04-27T07:13:07.118Z,2604.38
2018-04-27T07:14:07.096Z,2508.75
2018-04-27T07:15:07.085Z,2311.88
2018-04-27T07:16:07.066Z,2019.38
2018-04-27T07:17:07.087Z,2075.63
2018-04-27T07:18:07.041Z,1867.50
2018-04-27T07:19:07.026Z,1260.00
2018-04-27T07:20:07.013Z,1445.63
2018-04-27T07:21:07.009Z,1462.50
2018-04-27T07:22:07.058Z,995.63
2018-04-27T07:23:06.979Z,1586.25
2018-04-27T07:24:06.962Z,2452.50
2018-04-27T07:25:06.952Z,2092.50
2018-04-27T07:26:06.939Z,1957.50
2018-04-27T07:27:06.927Z,2340.00
2018-04-27T07:28:06.916Z,3088.13
2018-04-27T07:29:06.903Z,2435.63
2018-04-27T07:30:06.895Z,1980.00
2018-04-27T07:31:06.880Z,2362.50
2018-04-27T07:32:06.872Z,2486.25
2018-04-27T07:33:06.860Z,2649.38
2018-04-27T07:34:06.926Z,3048.75
2018-04-27T07:35:06.838Z,2986.88
2018-04-27T07:36:06.828Z,2947.50
2018-04-27T07:37:06.818Z,2683.13
2018-04-27T07:38:06.813Z,2340.00
2018-04-27T07:39:06.799Z,2711.25
2018-04-27T07:40:06.789Z,2677.50
2018-04-27T07:41:06.781Z,2795.63
2018-04-27T07:42:06.771Z,2947.50
2018-04-27T07:43:06.760Z,2936.25
2018-04-27T07:44:06.752Z,3076.88
2018-04-27T07:45:06.745Z,3200.63
2018-04-27T07:46:06.737Z,3436.88
2018-04-27T07:47:06.726Z,3346.88
2018-04-27T07:48:06.722Z,3386.25
2018-04-27T07:49:06.718Z,2840.63
2018-04-27T07:50:06.706Z,3380.63
2018-04-27T07:51:06.703Z,4134.38
2018-04-27T07:52:06.690Z,2790.00
2018-04-27T07:53:06.681Z,2941.88
2018-04-27T07:54:06.676Z,3268.13
2018-04-27T07:55:06.674Z,2424.38
2018-04-27T07:56:06.666Z,3408.75
2018-04-27T07:57:06.659Z,2902.50
2018-04-27T07:58:06.651Z,3121.88
2018-04-27T07:59:06.646Z,2688.75
2018-04-27T08:00:06.649Z,3166.88
2018-04-27T08:01:06.636Z,3498.75
2018-04-27T08:02:06.687Z,3678.75
2018-04-27T08:03:06.624Z,3667.50
2018-04-27T08:04:06.617Z,3369.38
2018-04-27T08:05:06.616Z,3825.00
2018-04-27T08:06:06.608Z,3712.50
2018-04-27T08:07:06.610Z,3870.00
2018-04-27T08:08:06.603Z,3903.75
2018-04-27T08:09:06.596Z,4252.50
2018-04-27T08:10:06.593Z,4612.50
2018-04-27T08:11:06.588Z,3234.38
2018-04-27T08:12:06.587Z,3352.50
2018-04-27T08:13:06.582Z,3453.75
2018-04-27T08:14:06.578Z,3993.75
2018-04-27T08:15:06.574Z,4168.13
2018-04-27T08:16:06.569Z,4179.38
2018-04-27T08:17:06.574Z,4044.38
2018-04-27T08:18:06.570Z,3459.38
2018-04-27T08:19:06.565Z,3661.88
2018-04-27T08:20:06.564Z,4005.00
2018-04-27T08:21:06.560Z,4201.88
2018-04-27T08:22:06.558Z,4066.88
2018-04-27T08:23:06.553Z,4365.00
2018-04-27T08:24:06.550Z,4612.50
2018-04-27T08:25:06.549Z,4584.38
2018-04-27T08:26:06.548Z,4460.63
2018-04-27T08:27:06.545Z,4500.00
2018-04-27T08:28:06.545Z,4471.88
2018-04-27T08:29:06.542Z,4640.63
2018-04-27T08:30:06.540Z,4590.00
2018-04-27T08:31:06.543Z,4505.63
2018-04-27T08:32:06.539Z,4342.50
2018-04-27T08:33:06.542Z,4730.63
2018-04-27T08:34:06.537Z,4455.00
2018-04-27T08:35:06.536Z,4657.50
2018-04-27T08:36:06.538Z,4680.00
2018-04-27T08:37:06.533Z,4471.88
2018-04-27T08:38:06.535Z,4606.88
2018-04-27T08:39:06.533Z,4190.63
2018-04-27T08:40:06.538Z,4173.75
2018-04-27T08:41:06.534Z,3757.50
2018-04-27T08:42:06.532Z,3802.50
2018-04-27T08:43:06.540Z,4483.13
2018-04-27T08:44:06.531Z,4685.63
2018-04-27T08:45:06.531Z,4488.75
2018-04-27T08:46:06.529Z,4449.38
2018-04-27T08:47:06.535Z,4668.75
2018-04-27T08:48:06.536Z,4657.50
2018-04-27T08:49:06.532Z,4685.63
2018-04-27T08:50:06.540Z,4674.38
2018-04-27T08:51:06.530Z,4528.13
2018-04-27T08:52:06.530Z,4882.50
2018-04-27T08:53:06.531Z,4905.00
2018-04-27T08:54:06.531Z,5107.50
2018-04-27T08:55:06.570Z,4308.75
2018-04-27T08:56:06.530Z,5079.38
2018-04-27T08:57:06.532Z,4933.13
2018-04-27T08:58:06.534Z,4764.38
2018-04-27T08:59:06.534Z,4950.00
2018-04-27T09:00:06.537Z,4995.00
2018-04-27T09:01:06.537Z,5315.63
2018-04-27T09:02:06.533Z,5433.75
2018-04-27T09:03:06.535Z,5478.75
2018-04-27T09:04:06.537Z,4983.75
2018-04-27T09:05:06.539Z,4978.13
2018-04-27T09:06:06.538Z,4640.63
2018-04-27T09:07:06.539Z,4168.13
2018-04-27T09:08:06.547Z,4843.13
2018-04-27T09:09:06.542Z,4224.38
2018-04-27T09:10:06.542Z,4263.75
2018-04-27T09:11:06.549Z,5580.00
2018-04-27T09:12:06.542Z,5608.13
2018-04-27T09:13:06.543Z,4972.50
2018-04-27T09:14:06.546Z,5625.00
2018-04-27T09:15:06.546Z,5703.75
2018-04-27T09:16:06.550Z,5647.50
2018-04-27T09:17:06.552Z,5495.63
2018-04-27T09:18:06.549Z,4803.75
2018-04-27T09:19:06.548Z,5523.75
2018-04-27T09:20:06.551Z,5270.63
2018-04-27T09:21:06.556Z,5118.75
2018-04-27T09:22:06.553Z,4522.50
2018-04-27T09:23:06.554Z,5225.63
2018-04-27T09:24:06.554Z,5383.13
2018-04-27T09:25:06.556Z,5478.75
2018-04-27T09:26:06.557Z,5467.50
2018-04-27T09:27:06.560Z,5551.88
2018-04-27T09:28:06.562Z,5625.00
2018-04-27T09:29:06.568Z,5529.38
2018-04-27T09:30:06.566Z,5523.75
2018-04-27T09:31:06.568Z,5529.38
2018-04-27T09:32:06.569Z,5501.25
2018-04-27T09:33:06.569Z,5585.63
2018-04-27T09:34:06.569Z,5703.75
2018-04-27T09:35:06.573Z,5833.13
2018-04-27T09:36:06.577Z,860.63
2018-04-27T09:37:06.574Z,3375.00
2018-04-27T09:38:06.577Z,1462.50
2018-04-27T09:39:06.581Z,5956.88
2018-04-27T09:40:06.585Z,6018.75
2018-04-27T09:41:06.587Z,6035.63
2018-04-27T09:42:06.585Z,5968.13
2018-04-27T09:43:06.589Z,5923.13
2018-04-27T09:44:06.591Z,5737.50
2018-04-27T09:45:06.594Z,5596.88
2018-04-27T09:46:06.596Z,5872.50
2018-04-27T09:47:06.596Z,5906.25
2018-04-27T09:48:06.599Z,5883.75
2018-04-27T09:49:06.604Z,5838.75
2018-04-27T09:50:06.601Z,5844.38
2018-04-27T09:51:06.605Z,5743.13
2018-04-27T09:52:06.613Z,5720.63
2018-04-27T09:53:06.607Z,5692.50
2018-04-27T09:54:06.611Z,5855.63
2018-04-27T09:55:06.614Z,5945.63
2018-04-27T09:56:06.615Z,866.25
2018-04-27T09:57:06.626Z,888.75
2018-04-27T09:58:06.632Z,6046.88
2018-04-27T09:59:06.622Z,5956.88
2018-04-27T10:00:06.621Z,5866.88
2018-04-27T10:01:06.630Z,5872.50
2018-04-27T10:02:06.631Z,5866.88
2018-04-27T10:03:06.631Z,5911.88
2018-04-27T10:04:06.630Z,5962.50
2018-04-27T10:05:06.636Z,6018.75
2018-04-27T10:06:06.637Z,6069.38
2018-04-27T10:07:06.641Z,6058.13
2018-04-27T10:08:06.642Z,5956.88
2018-04-27T10:09:06.647Z,6041.25
2018-04-27T10:10:06.648Z,6035.63
2018-04-27T10:11:06.649Z,5911.88
2018-04-27T10:12:06.653Z,5945.63
2018-04-27T10:13:06.659Z,5917.50
2018-04-27T10:14:06.662Z,5793.75
2018-04-27T10:15:06.744Z,5692.50
2018-04-27T10:16:06.667Z,5748.75
2018-04-27T10:17:06.670Z,5805.00
2018-04-27T10:18:06.671Z,5895.00
2018-04-27T10:19:06.679Z,5878.13
2018-04-27T10:20:06.680Z,5720.63
2018-04-27T10:21:06.686Z,5799.38
2018-04-27T10:22:06.686Z,3189.38
2018-04-27T10:23:06.686Z,6131.25
2018-04-27T10:24:06.691Z,5653.13
2018-04-27T10:25:06.697Z,5748.75
2018-04-27T10:26:06.699Z,5923.13
2018-04-27T10:27:06.701Z,5923.13
2018-04-27T10:28:06.704Z,5743.13
2018-04-27T10:29:06.708Z,5737.50
2018-04-27T10:30:06.715Z,5596.88
2018-04-27T10:31:06.716Z,5405.63
2018-04-27T10:32:06.720Z,5754.38
2018-04-27T10:33:06.727Z,5878.13
2018-04-27T10:34:06.728Z,5951.25
2018-04-27T10:35:06.728Z,5900.63
2018-04-27T10:36:06.731Z,933.75
2018-04-27T10:37:06.734Z,810.00
2018-04-27T10:38:06.741Z,5360.63
2018-04-27T10:39:06.741Z,1271.25
2018-04-27T10:40:06.745Z,1198.13
2018-04-27T10:41:06.747Z,6091.88
2018-04-27T10:42:06.804Z,6080.63
2018-04-27T10:43:06.835Z,5917.50
2018-04-27T10:44:06.754Z,6030.00
2018-04-27T10:45:06.763Z,5906.25
2018-04-27T10:46:06.760Z,5883.75
2018-04-27T10:47:06.764Z,6075.00
2018-04-27T10:48:06.817Z,6193.13
2018-04-27T10:49:06.769Z,6435.00
2018-04-27T10:50:06.770Z,5484.38
2018-04-27T10:51:06.776Z,1068.75
2018-04-27T10:52:06.778Z,1068.75
2018-04-27T10:53:06.784Z,4455.00
2018-04-27T10:54:06.785Z,5973.75
2018-04-27T10:55:06.786Z,6086.25
2018-04-27T10:56:06.881Z,6255.00
2018-04-27T10:57:06.793Z,967.50
2018-04-27T10:58:06.795Z,1153.13
2018-04-27T10:59:06.798Z,3881.25
2018-04-27T11:00:06.801Z,6215.63
2018-04-27T11:01:06.805Z,6333.75
2018-04-27T11:02:06.806Z,6277.50
2018-04-27T11:03:06.807Z,6176.25
2018-04-27T11:04:06.816Z,4359.38
2018-04-27T11:05:06.818Z,5934.38
2018-04-27T11:06:06.815Z,6187.50
2018-04-27T11:07:06.826Z,5422.50
2018-04-27T11:08:06.821Z,1141.88
2018-04-27T11:09:06.825Z,1372.50
2018-04-27T11:10:06.828Z,6283.13
2018-04-27T11:11:06.907Z,6311.25
2018-04-27T11:12:06.831Z,6271.88
2018-04-27T11:13:06.837Z,6232.50
2018-04-27T11:14:06.843Z,6204.38
2018-04-27T11:15:06.841Z,6187.50
2018-04-27T11:16:06.845Z,5416.88
2018-04-27T11:17:06.886Z,1316.25
2018-04-27T11:18:06.851Z,3234.38
2018-04-27T11:19:06.854Z,4421.25
2018-04-27T11:20:06.915Z,5928.75
2018-04-27T11:21:06.864Z,5276.25
2018-04-27T11:22:06.862Z,5805.00
2018-04-27T11:23:06.864Z,1040.63
2018-04-27T11:24:06.867Z,939.38
2018-04-27T11:25:06.871Z,871.88
2018-04-27T11:26:06.905Z,967.50
2018-04-27T11:27:06.876Z,1102.50
2018-04-27T11:28:06.880Z,6063.75
2018-04-27T11:29:06.880Z,1411.88
2018-04-27T11:30:06.884Z,6013.13
2018-04-27T11:31:06.885Z,1186.88
2018-04-27T11:32:06.885Z,1023.75
2018-04-27T11:33:06.889Z,838.13
2018-04-27T11:34:06.892Z,781.88
2018-04-27T11:35:06.998Z,866.25
2018-04-27T11:36:06.893Z,1040.63
2018-04-27T11:37:06.894Z,6108.75
2018-04-27T11:38:06.899Z,4719.38
2018-04-27T11:39:06.897Z,6271.88
2018-04-27T11:40:06.898Z,6091.88
2018-04-27T11:41:06.900Z,6277.50
2018-04-27T11:42:06.900Z,6232.50
2018-04-27T11:43:06.902Z,6226.88
2018-04-27T11:44:06.903Z,6198.75
2018-04-27T11:45:06.905Z,6108.75
2018-04-27T11:46:06.907Z,6181.88
2018-04-27T11:47:06.906Z,6204.38
2018-04-27T11:48:06.916Z,5990.63
2018-04-27T11:49:06.920Z,6013.13
2018-04-27T11:50:06.914Z,5855.63
2018-04-27T11:51:06.925Z,5585.63
2018-04-27T11:52:06.919Z,5422.50
2018-04-27T11:53:06.925Z,5698.13
2018-04-27T11:54:06.925Z,5968.13
2018-04-27T11:55:06.926Z,5979.38
2018-04-27T11:56:06.932Z,1158.75
2018-04-27T11:57:06.932Z,1035.00
2018-04-27T11:58:06.934Z,1153.13
2018-04-27T11:59:06.937Z,5861.25
2018-04-27T12:00:06.939Z,5563.13
2018-04-27T12:01:06.942Z,5400.00
2018-04-27T12:02:06.945Z,5394.38
2018-04-27T12:03:06.947Z,5326.88
2018-04-27T12:04:06.948Z,5214.38
2018-04-27T12:05:06.955Z,5236.88
2018-04-27T12:06:06.955Z,5175.00
2018-04-27T12:07:06.957Z,4888.13
2018-04-27T12:08:06.959Z,4753.13
2018-04-27T12:09:06.962Z,4590.00
2018-04-27T12:10:06.964Z,3971.25
2018-04-27T12:11:06.966Z,1175.63
2018-04-27T12:12:06.972Z,1063.13
2018-04-27T12:13:06.971Z,973.13
2018-04-27T12:14:06.974Z,961.88
2018-04-27T12:15:06.975Z,973.13
2018-04-27T12:16:06.977Z,1012.50
2018-04-27T12:17:06.978Z,1518.75
2018-04-27T12:18:06.984Z,4556.25
2018-04-27T12:19:06.990Z,4449.38
2018-04-27T12:20:06.988Z,4190.63
2018-04-27T12:21:06.983Z,4235.63
2018-04-27T12:22:06.987Z,3993.75
2018-04-27T12:23:06.987Z,3875.63
2018-04-27T12:24:06.987Z,3510.00
2018-04-27T12:25:06.993Z,1518.75
2018-04-27T12:26:06.992Z,2908.13
2018-04-27T12:27:06.996Z,3504.38
2018-04-27T12:28:06.993Z,3774.38
2018-04-27T12:29:06.997Z,1980.00
2018-04-27T12:30:07.000Z,1462.50
2018-04-27T12:31:07.084Z,1558.13
2018-04-27T12:32:06.996Z,1485.00
2018-04-27T12:33:06.998Z,4269.38
2018-04-27T12:34:07.002Z,4325.63